Farmington, Connecticut
Current Conditions -  °F | °C
As of 1:53 PM on Friday 24 Oct 2014 (Local Time) from KHFD Reporting Station
Overcast Overcast  
Wind Chill: 55°   Ceiling: 3300
Heat Index: 55°   Visibility: 10mi
Dew Point: 42°   Wind: 16mph
Humidity: 62%   Direction: 350°N
Pressure: 29.73"   Gusts: 22mph
Location:  41.72°N, 72.83°W
Report Text: KHFD 241753Z 35014G19KT 10SM OVC033 13/06 A2973 RMK AO2 SLP066 60002 T01280056 10133 20089 58013
Loading
Personal Weather Stations






























Interactive Weather Map New forecast layout! Learn more

10-Day Weather Forecast

Advertisements
Track Severe Weather on mobile